sensor_id;sensor_type;location;lat;lon;timestamp;P1;durP1;ratioP1;P2;durP2;ratioP2
7104;SDS011;3594;42.152;24.714;2023-06-24T00:00:57;8.93;;;5.55;;
7104;SDS011;3594;42.152;24.714;2023-06-24T00:03:22;7.45;;;5.05;;
7104;SDS011;3594;42.152;24.714;2023-06-24T00:05:48;8.40;;;5.32;;
7104;SDS011;3594;42.152;24.714;2023-06-24T00:08:18;9.55;;;5.40;;
7104;SDS011;3594;42.152;24.714;2023-06-24T00:10:47;9.43;;;5.88;;
7104;SDS011;3594;42.152;24.714;2023-06-24T00:13:13;8.93;;;5.38;;
7104;SDS011;3594;42.152;24.714;2023-06-24T00:15:39;9.50;;;5.43;;
7104;SDS011;3594;42.152;24.714;2023-06-24T00:18:08;9.48;;;5.68;;
7104;SDS011;3594;42.152;24.714;2023-06-24T00:20:34;8.20;;;5.03;;
7104;SDS011;3594;42.152;24.714;2023-06-24T00:23:00;7.60;;;4.70;;
7104;SDS011;3594;42.152;24.714;2023-06-24T00:25:26;9.27;;;4.97;;
7104;SDS011;3594;42.152;24.714;2023-06-24T00:27:51;9.13;;;5.30;;
7104;SDS011;3594;42.152;24.714;2023-06-24T00:30:17;7.43;;;4.78;;
7104;SDS011;3594;42.152;24.714;2023-06-24T00:32:42;8.07;;;4.70;;
7104;SDS011;3594;42.152;24.714;2023-06-24T00:35:08;7.28;;;4.78;;
7104;SDS011;3594;42.152;24.714;2023-06-24T00:37:35;7.90;;;4.90;;
7104;SDS011;3594;42.152;24.714;2023-06-24T00:40:01;6.75;;;4.70;;
7104;SDS011;3594;42.152;24.714;2023-06-24T00:42:28;7.50;;;4.90;;
7104;SDS011;3594;42.152;24.714;2023-06-24T00:44:54;8.00;;;5.05;;
7104;SDS011;3594;42.152;24.714;2023-06-24T00:47:19;7.80;;;4.85;;
7104;SDS011;3594;42.152;24.714;2023-06-24T00:49:45;8.98;;;5.28;;
7104;SDS011;3594;42.152;24.714;2023-06-24T00:52:11;6.75;;;4.57;;
7104;SDS011;3594;42.152;24.714;2023-06-24T00:54:40;9.43;;;5.30;;
7104;SDS011;3594;42.152;24.714;2023-06-24T00:57:07;8.57;;;4.55;;
7104;SDS011;3594;42.152;24.714;2023-06-24T00:59:32;8.75;;;4.85;;
7104;SDS011;3594;42.152;24.714;2023-06-24T01:01:59;9.50;;;4.57;;
7104;SDS011;3594;42.152;24.714;2023-06-24T01:04:29;7.18;;;5.03;;
7104;SDS011;3594;42.152;24.714;2023-06-24T01:06:56;7.80;;;4.90;;
7104;SDS011;3594;42.152;24.714;2023-06-24T01:09:22;7.47;;;5.03;;
7104;SDS011;3594;42.152;24.714;2023-06-24T01:11:48;8.77;;;4.70;;
7104;SDS011;3594;42.152;24.714;2023-06-24T01:14:13;7.00;;;4.47;;
7104;SDS011;3594;42.152;24.714;2023-06-24T01:16:44;7.43;;;4.78;;
7104;SDS011;3594;42.152;24.714;2023-06-24T01:27:44;6.15;;;4.18;;
7104;SDS011;3594;42.152;24.714;2023-06-24T01:30:28;6.80;;;4.13;;
7104;SDS011;3594;42.152;24.714;2023-06-24T01:32:56;7.07;;;4.28;;
7104;SDS011;3594;42.152;24.714;2023-06-24T01:35:35;7.55;;;4.28;;
7104;SDS011;3594;42.152;24.714;2023-06-24T01:38:01;7.15;;;4.22;;
7104;SDS011;3594;42.152;24.714;2023-06-24T01:40:38;5.55;;;4.13;;
7104;SDS011;3594;42.152;24.714;2023-06-24T01:43:08;8.27;;;4.03;;
7104;SDS011;3594;42.152;24.714;2023-06-24T01:45:37;6.53;;;4.30;;
7104;SDS011;3594;42.152;24.714;2023-06-24T01:48:14;6.35;;;4.22;;
7104;SDS011;3594;42.152;24.714;2023-06-24T01:50:48;6.07;;;3.95;;
7104;SDS011;3594;42.152;24.714;2023-06-24T01:53:22;6.32;;;4.03;;
7104;SDS011;3594;42.152;24.714;2023-06-24T01:55:48;6.68;;;3.97;;
7104;SDS011;3594;42.152;24.714;2023-06-24T01:58:16;7.97;;;4.50;;
7104;SDS011;3594;42.152;24.714;2023-06-24T02:00:43;6.90;;;4.40;;
7104;SDS011;3594;42.152;24.714;2023-06-24T02:03:09;7.00;;;4.55;;
7104;SDS011;3594;42.152;24.714;2023-06-24T02:05:35;9.65;;;4.20;;
7104;SDS011;3594;42.152;24.714;2023-06-24T02:08:04;7.43;;;4.65;;
7104;SDS011;3594;42.152;24.714;2023-06-24T02:10:33;7.60;;;5.03;;
7104;SDS011;3594;42.152;24.714;2023-06-24T02:13:02;7.75;;;4.60;;
7104;SDS011;3594;42.152;24.714;2023-06-24T02:15:30;6.75;;;4.32;;
7104;SDS011;3594;42.152;24.714;2023-06-24T02:17:56;7.90;;;4.30;;
7104;SDS011;3594;42.152;24.714;2023-06-24T02:20:23;10.00;;;4.38;;
7104;SDS011;3594;42.152;24.714;2023-06-24T02:22:53;7.32;;;4.55;;
7104;SDS011;3594;42.152;24.714;2023-06-24T02:25:20;7.05;;;4.60;;
7104;SDS011;3594;42.152;24.714;2023-06-24T02:27:45;7.32;;;4.85;;
7104;SDS011;3594;42.152;24.714;2023-06-24T02:30:12;8.48;;;4.28;;
7104;SDS011;3594;42.152;24.714;2023-06-24T02:32:39;8.48;;;4.60;;
7104;SDS011;3594;42.152;24.714;2023-06-24T02:35:05;6.47;;;4.35;;
7104;SDS011;3594;42.152;24.714;2023-06-24T02:37:32;6.90;;;4.70;;
7104;SDS011;3594;42.152;24.714;2023-06-24T02:39:57;7.47;;;4.60;;
7104;SDS011;3594;42.152;24.714;2023-06-24T02:42:24;5.82;;;4.22;;
7104;SDS011;3594;42.152;24.714;2023-06-24T02:44:50;8.07;;;4.47;;
7104;SDS011;3594;42.152;24.714;2023-06-24T02:47:16;8.60;;;5.00;;
7104;SDS011;3594;42.152;24.714;2023-06-24T02:49:43;7.57;;;4.18;;
7104;SDS011;3594;42.152;24.714;2023-06-24T02:52:11;5.97;;;4.22;;
7104;SDS011;3594;42.152;24.714;2023-06-24T02:54:37;7.57;;;4.50;;
7104;SDS011;3594;42.152;24.714;2023-06-24T02:57:04;7.03;;;4.40;;
7104;SDS011;3594;42.152;24.714;2023-06-24T02:59:31;7.15;;;4.43;;
7104;SDS011;3594;42.152;24.714;2023-06-24T03:01:57;7.00;;;4.47;;
7104;SDS011;3594;42.152;24.714;2023-06-24T03:04:24;6.18;;;4.15;;
7104;SDS011;3594;42.152;24.714;2023-06-24T03:06:50;7.78;;;4.20;;
7104;SDS011;3594;42.152;24.714;2023-06-24T03:09:17;7.65;;;4.35;;
7104;SDS011;3594;42.152;24.714;2023-06-24T03:11:43;7.32;;;4.13;;
7104;SDS011;3594;42.152;24.714;2023-06-24T03:14:09;10.77;;;4.72;;
7104;SDS011;3594;42.152;24.714;2023-06-24T03:16:35;8.45;;;4.65;;
7104;SDS011;3594;42.152;24.714;2023-06-24T03:19:01;7.57;;;4.70;;
7104;SDS011;3594;42.152;24.714;2023-06-24T03:21:27;7.13;;;4.05;;
7104;SDS011;3594;42.152;24.714;2023-06-24T03:23:56;7.75;;;4.85;;
7104;SDS011;3594;42.152;24.714;2023-06-24T03:26:21;7.15;;;4.85;;
7104;SDS011;3594;42.152;24.714;2023-06-24T03:28:47;6.85;;;4.30;;
7104;SDS011;3594;42.152;24.714;2023-06-24T03:31:13;7.38;;;4.30;;
7104;SDS011;3594;42.152;24.714;2023-06-24T03:33:40;6.43;;;4.15;;
7104;SDS011;3594;42.152;24.714;2023-06-24T03:36:09;7.15;;;4.63;;
7104;SDS011;3594;42.152;24.714;2023-06-24T03:38:35;7.18;;;4.40;;
7104;SDS011;3594;42.152;24.714;2023-06-24T03:41:00;6.78;;;3.97;;
7104;SDS011;3594;42.152;24.714;2023-06-24T03:43:26;7.10;;;4.32;;
7104;SDS011;3594;42.152;24.714;2023-06-24T03:45:51;7.47;;;4.30;;
7104;SDS011;3594;42.152;24.714;2023-06-24T03:48:16;8.48;;;4.22;;
7104;SDS011;3594;42.152;24.714;2023-06-24T03:50:42;6.88;;;4.70;;
7104;SDS011;3594;42.152;24.714;2023-06-24T03:53:07;6.93;;;4.55;;
7104;SDS011;3594;42.152;24.714;2023-06-24T03:55:33;8.38;;;4.45;;
7104;SDS011;3594;42.152;24.714;2023-06-24T03:57:58;5.70;;;4.05;;
7104;SDS011;3594;42.152;24.714;2023-06-24T04:00:23;6.63;;;4.25;;
7104;SDS011;3594;42.152;24.714;2023-06-24T04:02:49;6.85;;;4.28;;
7104;SDS011;3594;42.152;24.714;2023-06-24T04:05:15;7.18;;;4.90;;
7104;SDS011;3594;42.152;24.714;2023-06-24T04:07:40;7.47;;;4.50;;
7104;SDS011;3594;42.152;24.714;2023-06-24T04:10:06;10.63;;;4.63;;
7104;SDS011;3594;42.152;24.714;2023-06-24T04:12:34;7.30;;;4.53;;
7104;SDS011;3594;42.152;24.714;2023-06-24T04:15:01;8.18;;;4.80;;
7104;SDS011;3594;42.152;24.714;2023-06-24T04:17:28;6.47;;;4.28;;
7104;SDS011;3594;42.152;24.714;2023-06-24T04:19:53;6.72;;;4.05;;
7104;SDS011;3594;42.152;24.714;2023-06-24T04:22:19;6.70;;;4.50;;
7104;SDS011;3594;42.152;24.714;2023-06-24T04:24:44;7.93;;;4.32;;
7104;SDS011;3594;42.152;24.714;2023-06-24T04:27:09;8.40;;;4.60;;
7104;SDS011;3594;42.152;24.714;2023-06-24T04:29:35;6.95;;;4.43;;
7104;SDS011;3594;42.152;24.714;2023-06-24T04:32:00;8.05;;;4.55;;
7104;SDS011;3594;42.152;24.714;2023-06-24T04:34:26;5.75;;;3.85;;
7104;SDS011;3594;42.152;24.714;2023-06-24T04:36:51;6.55;;;4.35;;
7104;SDS011;3594;42.152;24.714;2023-06-24T04:39:17;7.28;;;4.38;;
7104;SDS011;3594;42.152;24.714;2023-06-24T04:41:43;6.78;;;4.35;;
7104;SDS011;3594;42.152;24.714;2023-06-24T04:44:08;6.70;;;4.47;;
7104;SDS011;3594;42.152;24.714;2023-06-24T04:46:34;7.40;;;4.53;;
7104;SDS011;3594;42.152;24.714;2023-06-24T04:48:59;7.40;;;4.63;;
7104;SDS011;3594;42.152;24.714;2023-06-24T04:51:25;7.82;;;4.55;;
7104;SDS011;3594;42.152;24.714;2023-06-24T04:53:51;7.07;;;4.53;;
7104;SDS011;3594;42.152;24.714;2023-06-24T04:56:17;6.82;;;4.32;;
7104;SDS011;3594;42.152;24.714;2023-06-24T04:58:47;6.28;;;4.70;;
7104;SDS011;3594;42.152;24.714;2023-06-24T05:01:24;7.13;;;4.90;;
7104;SDS011;3594;42.152;24.714;2023-06-24T05:03:50;7.80;;;4.50;;
7104;SDS011;3594;42.152;24.714;2023-06-24T05:06:15;8.38;;;4.10;;
7104;SDS011;3594;42.152;24.714;2023-06-24T05:08:40;9.02;;;4.82;;
7104;SDS011;3594;42.152;24.714;2023-06-24T05:11:06;6.68;;;4.63;;
7104;SDS011;3594;42.152;24.714;2023-06-24T05:13:31;7.70;;;4.50;;
7104;SDS011;3594;42.152;24.714;2023-06-24T05:15:57;8.57;;;4.35;;
7104;SDS011;3594;42.152;24.714;2023-06-24T05:18:22;7.90;;;4.38;;
7104;SDS011;3594;42.152;24.714;2023-06-24T05:20:48;6.03;;;4.50;;
7104;SDS011;3594;42.152;24.714;2023-06-24T05:23:13;7.10;;;4.70;;
7104;SDS011;3594;42.152;24.714;2023-06-24T05:25:39;8.98;;;4.50;;
7104;SDS011;3594;42.152;24.714;2023-06-24T05:28:04;7.53;;;4.28;;
7104;SDS011;3594;42.152;24.714;2023-06-24T05:30:29;8.02;;;3.92;;
7104;SDS011;3594;42.152;24.714;2023-06-24T05:32:55;5.85;;;4.20;;
7104;SDS011;3594;42.152;24.714;2023-06-24T05:35:20;6.38;;;4.20;;
7104;SDS011;3594;42.152;24.714;2023-06-24T05:37:46;5.75;;;4.22;;
7104;SDS011;3594;42.152;24.714;2023-06-24T05:40:11;8.40;;;4.47;;
7104;SDS011;3594;42.152;24.714;2023-06-24T05:42:37;6.68;;;4.53;;
7104;SDS011;3594;42.152;24.714;2023-06-24T05:45:03;8.18;;;4.57;;
7104;SDS011;3594;42.152;24.714;2023-06-24T05:47:29;9.90;;;4.82;;
7104;SDS011;3594;42.152;24.714;2023-06-24T05:49:55;7.93;;;4.72;;
7104;SDS011;3594;42.152;24.714;2023-06-24T05:52:20;6.93;;;4.55;;
7104;SDS011;3594;42.152;24.714;2023-06-24T05:54:46;9.90;;;4.57;;
7104;SDS011;3594;42.152;24.714;2023-06-24T05:57:11;7.18;;;4.75;;
7104;SDS011;3594;42.152;24.714;2023-06-24T05:59:37;8.02;;;4.80;;
7104;SDS011;3594;42.152;24.714;2023-06-24T06:02:03;6.47;;;4.68;;
7104;SDS011;3594;42.152;24.714;2023-06-24T06:04:28;10.95;;;5.60;;
7104;SDS011;3594;42.152;24.714;2023-06-24T06:06:55;10.07;;;6.28;;
7104;SDS011;3594;42.152;24.714;2023-06-24T06:09:21;8.73;;;6.00;;
7104;SDS011;3594;42.152;24.714;2023-06-24T06:11:47;11.30;;;6.50;;
7104;SDS011;3594;42.152;24.714;2023-06-24T06:14:13;10.00;;;6.43;;
7104;SDS011;3594;42.152;24.714;2023-06-24T06:16:38;9.55;;;6.38;;
7104;SDS011;3594;42.152;24.714;2023-06-24T06:19:04;11.13;;;6.78;;
7104;SDS011;3594;42.152;24.714;2023-06-24T06:21:29;8.90;;;5.93;;
7104;SDS011;3594;42.152;24.714;2023-06-24T06:23:55;10.05;;;6.20;;
7104;SDS011;3594;42.152;24.714;2023-06-24T06:26:20;12.60;;;5.95;;
7104;SDS011;3594;42.152;24.714;2023-06-24T06:28:46;10.70;;;6.60;;
7104;SDS011;3594;42.152;24.714;2023-06-24T06:31:15;9.15;;;6.28;;
7104;SDS011;3594;42.152;24.714;2023-06-24T06:33:41;10.35;;;6.28;;
7104;SDS011;3594;42.152;24.714;2023-06-24T06:36:09;8.82;;;6.03;;
7104;SDS011;3594;42.152;24.714;2023-06-24T06:38:37;11.52;;;6.15;;
7104;SDS011;3594;42.152;24.714;2023-06-24T06:41:02;11.57;;;7.00;;
7104;SDS011;3594;42.152;24.714;2023-06-24T06:43:28;11.50;;;6.68;;
7104;SDS011;3594;42.152;24.714;2023-06-24T06:45:53;8.68;;;5.30;;
7104;SDS011;3594;42.152;24.714;2023-06-24T06:48:18;9.65;;;6.00;;
7104;SDS011;3594;42.152;24.714;2023-06-24T06:50:44;10.02;;;5.55;;
7104;SDS011;3594;42.152;24.714;2023-06-24T06:53:12;8.82;;;5.72;;
7104;SDS011;3594;42.152;24.714;2023-06-24T06:55:37;9.27;;;6.15;;
7104;SDS011;3594;42.152;24.714;2023-06-24T06:58:04;9.00;;;6.10;;
7104;SDS011;3594;42.152;24.714;2023-06-24T07:00:29;11.02;;;6.45;;
7104;SDS011;3594;42.152;24.714;2023-06-24T07:02:55;9.70;;;6.63;;
7104;SDS011;3594;42.152;24.714;2023-06-24T07:05:20;9.68;;;5.90;;
7104;SDS011;3594;42.152;24.714;2023-06-24T07:07:46;9.02;;;5.68;;
7104;SDS011;3594;42.152;24.714;2023-06-24T07:10:11;8.35;;;5.75;;
7104;SDS011;3594;42.152;24.714;2023-06-24T07:12:37;10.98;;;6.43;;
7104;SDS011;3594;42.152;24.714;2023-06-24T07:15:03;10.25;;;6.20;;
7104;SDS011;3594;42.152;24.714;2023-06-24T07:17:29;10.90;;;5.85;;
7104;SDS011;3594;42.152;24.714;2023-06-24T07:19:54;9.82;;;6.20;;
7104;SDS011;3594;42.152;24.714;2023-06-24T07:22:20;8.45;;;5.43;;
7104;SDS011;3594;42.152;24.714;2023-06-24T07:24:46;11.60;;;5.60;;
7104;SDS011;3594;42.152;24.714;2023-06-24T07:27:11;9.23;;;6.00;;
7104;SDS011;3594;42.152;24.714;2023-06-24T07:29:37;9.32;;;5.80;;
7104;SDS011;3594;42.152;24.714;2023-06-24T07:32:02;9.40;;;5.50;;
7104;SDS011;3594;42.152;24.714;2023-06-24T07:34:28;8.55;;;5.60;;
7104;SDS011;3594;42.152;24.714;2023-06-24T07:36:55;11.93;;;6.28;;
7104;SDS011;3594;42.152;24.714;2023-06-24T07:39:20;8.90;;;5.82;;
7104;SDS011;3594;42.152;24.714;2023-06-24T07:41:46;10.20;;;6.00;;
7104;SDS011;3594;42.152;24.714;2023-06-24T07:44:11;9.63;;;5.90;;
7104;SDS011;3594;42.152;24.714;2023-06-24T07:46:37;9.40;;;5.75;;
7104;SDS011;3594;42.152;24.714;2023-06-24T07:49:02;8.80;;;5.63;;
7104;SDS011;3594;42.152;24.714;2023-06-24T07:51:28;8.00;;;5.55;;
7104;SDS011;3594;42.152;24.714;2023-06-24T07:53:53;9.43;;;6.07;;
7104;SDS011;3594;42.152;24.714;2023-06-24T07:56:19;8.98;;;5.85;;
7104;SDS011;3594;42.152;24.714;2023-06-24T07:58:44;8.00;;;5.18;;
7104;SDS011;3594;42.152;24.714;2023-06-24T08:01:09;8.75;;;5.88;;
7104;SDS011;3594;42.152;24.714;2023-06-24T08:03:35;11.68;;;5.47;;
7104;SDS011;3594;42.152;24.714;2023-06-24T08:06:02;8.70;;;5.57;;
7104;SDS011;3594;42.152;24.714;2023-06-24T08:08:27;8.77;;;5.50;;
7104;SDS011;3594;42.152;24.714;2023-06-24T08:10:53;8.98;;;5.28;;
7104;SDS011;3594;42.152;24.714;2023-06-24T08:13:18;8.20;;;5.05;;
7104;SDS011;3594;42.152;24.714;2023-06-24T08:15:44;7.13;;;4.95;;
7104;SDS011;3594;42.152;24.714;2023-06-24T08:18:09;9.23;;;5.32;;
7104;SDS011;3594;42.152;24.714;2023-06-24T08:20:35;7.82;;;4.53;;
7104;SDS011;3594;42.152;24.714;2023-06-24T08:23:01;8.25;;;5.20;;
7104;SDS011;3594;42.152;24.714;2023-06-24T08:25:27;10.45;;;5.63;;
7104;SDS011;3594;42.152;24.714;2023-06-24T08:27:52;9.98;;;5.47;;
7104;SDS011;3594;42.152;24.714;2023-06-24T08:30:18;7.40;;;4.97;;
7104;SDS011;3594;42.152;24.714;2023-06-24T08:32:43;9.02;;;5.07;;
7104;SDS011;3594;42.152;24.714;2023-06-24T08:35:09;7.78;;;5.18;;
7104;SDS011;3594;42.152;24.714;2023-06-24T08:37:35;8.32;;;5.13;;
7104;SDS011;3594;42.152;24.714;2023-06-24T08:40:01;8.10;;;5.20;;
7104;SDS011;3594;42.152;24.714;2023-06-24T08:42:26;8.90;;;5.40;;
7104;SDS011;3594;42.152;24.714;2023-06-24T08:44:52;8.15;;;5.43;;
7104;SDS011;3594;42.152;24.714;2023-06-24T08:47:18;9.30;;;4.97;;
7104;SDS011;3594;42.152;24.714;2023-06-24T08:49:44;8.20;;;5.35;;
7104;SDS011;3594;42.152;24.714;2023-06-24T08:52:18;7.88;;;5.30;;
7104;SDS011;3594;42.152;24.714;2023-06-24T08:54:46;9.38;;;5.55;;
7104;SDS011;3594;42.152;24.714;2023-06-24T08:57:15;10.18;;;5.72;;
7104;SDS011;3594;42.152;24.714;2023-06-24T08:59:41;8.98;;;5.68;;
7104;SDS011;3594;42.152;24.714;2023-06-24T09:02:07;7.85;;;5.35;;
7104;SDS011;3594;42.152;24.714;2023-06-24T09:04:33;8.23;;;5.38;;
7104;SDS011;3594;42.152;24.714;2023-06-24T09:06:59;8.73;;;5.55;;
7104;SDS011;3594;42.152;24.714;2023-06-24T09:09:25;8.13;;;5.13;;
7104;SDS011;3594;42.152;24.714;2023-06-24T09:11:55;7.78;;;4.72;;
7104;SDS011;3594;42.152;24.714;2023-06-24T09:14:25;8.73;;;5.30;;
7104;SDS011;3594;42.152;24.714;2023-06-24T09:16:52;8.45;;;5.53;;
7104;SDS011;3594;42.152;24.714;2023-06-24T09:19:22;8.80;;;5.47;;
7104;SDS011;3594;42.152;24.714;2023-06-24T09:21:48;7.88;;;5.90;;
7104;SDS011;3594;42.152;24.714;2023-06-24T09:24:14;8.85;;;5.50;;
7104;SDS011;3594;42.152;24.714;2023-06-24T09:26:41;8.43;;;5.28;;
7104;SDS011;3594;42.152;24.714;2023-06-24T09:29:09;9.85;;;5.65;;
7104;SDS011;3594;42.152;24.714;2023-06-24T09:31:35;8.52;;;5.47;;
7104;SDS011;3594;42.152;24.714;2023-06-24T09:34:00;8.30;;;4.88;;
7104;SDS011;3594;42.152;24.714;2023-06-24T09:36:26;10.68;;;5.70;;
7104;SDS011;3594;42.152;24.714;2023-06-24T09:38:51;11.15;;;5.53;;
7104;SDS011;3594;42.152;24.714;2023-06-24T09:41:16;9.95;;;5.72;;
7104;SDS011;3594;42.152;24.714;2023-06-24T09:43:42;8.40;;;5.47;;
7104;SDS011;3594;42.152;24.714;2023-06-24T09:46:12;8.50;;;5.20;;
7104;SDS011;3594;42.152;24.714;2023-06-24T09:48:39;8.38;;;5.65;;
7104;SDS011;3594;42.152;24.714;2023-06-24T09:51:05;7.30;;;4.95;;
7104;SDS011;3594;42.152;24.714;2023-06-24T09:53:34;9.60;;;5.45;;
7104;SDS011;3594;42.152;24.714;2023-06-24T09:56:00;10.07;;;5.18;;
7104;SDS011;3594;42.152;24.714;2023-06-24T09:58:32;6.78;;;4.97;;
7104;SDS011;3594;42.152;24.714;2023-06-24T10:01:03;9.52;;;5.28;;
7104;SDS011;3594;42.152;24.714;2023-06-24T10:03:31;8.57;;;5.20;;
7104;SDS011;3594;42.152;24.714;2023-06-24T10:05:59;7.97;;;5.05;;
7104;SDS011;3594;42.152;24.714;2023-06-24T10:08:25;8.85;;;5.38;;
7104;SDS011;3594;42.152;24.714;2023-06-24T10:10:52;8.13;;;5.50;;
7104;SDS011;3594;42.152;24.714;2023-06-24T10:13:17;7.47;;;5.28;;
7104;SDS011;3594;42.152;24.714;2023-06-24T10:15:44;8.82;;;5.03;;
7104;SDS011;3594;42.152;24.714;2023-06-24T10:18:54;7.88;;;5.20;;
7104;SDS011;3594;42.152;24.714;2023-06-24T10:21:05;6.43;;;4.63;;
7104;SDS011;3594;42.152;24.714;2023-06-24T10:26:28;7.82;;;5.30;;
7104;SDS011;3594;42.152;24.714;2023-06-24T10:34:30;7.95;;;5.15;;
7104;SDS011;3594;42.152;24.714;2023-06-24T10:37:00;7.88;;;4.88;;
7104;SDS011;3594;42.152;24.714;2023-06-24T10:42:31;7.85;;;4.72;;
7104;SDS011;3594;42.152;24.714;2023-06-24T10:47:37;6.38;;;4.65;;
7104;SDS011;3594;42.152;24.714;2023-06-24T10:50:10;7.88;;;5.15;;
7104;SDS011;3594;42.152;24.714;2023-06-24T10:52:39;8.10;;;5.15;;
7104;SDS011;3594;42.152;24.714;2023-06-24T10:55:06;7.47;;;4.97;;
7104;SDS011;3594;42.152;24.714;2023-06-24T10:57:34;7.72;;;5.00;;
7104;SDS011;3594;42.152;24.714;2023-06-24T11:00:02;8.98;;;5.00;;
7104;SDS011;3594;42.152;24.714;2023-06-24T11:02:28;8.38;;;5.28;;
7104;SDS011;3594;42.152;24.714;2023-06-24T11:04:55;6.70;;;4.95;;
7104;SDS011;3594;42.152;24.714;2023-06-24T11:07:26;8.95;;;5.22;;
7104;SDS011;3594;42.152;24.714;2023-06-24T11:10:00;7.05;;;5.18;;
7104;SDS011;3594;42.152;24.714;2023-06-24T11:12:31;8.10;;;5.28;;
7104;SDS011;3594;42.152;24.714;2023-06-24T11:15:02;7.50;;;5.03;;
7104;SDS011;3594;42.152;24.714;2023-06-24T11:17:29;8.32;;;5.32;;
7104;SDS011;3594;42.152;24.714;2023-06-24T11:19:55;8.55;;;5.25;;
7104;SDS011;3594;42.152;24.714;2023-06-24T11:22:22;8.00;;;5.55;;
7104;SDS011;3594;42.152;24.714;2023-06-24T11:24:48;8.63;;;5.53;;
7104;SDS011;3594;42.152;24.714;2023-06-24T11:27:13;8.90;;;5.60;;
7104;SDS011;3594;42.152;24.714;2023-06-24T11:29:39;7.72;;;5.40;;
7104;SDS011;3594;42.152;24.714;2023-06-24T11:32:06;9.00;;;5.93;;
7104;SDS011;3594;42.152;24.714;2023-06-24T11:34:32;9.57;;;5.78;;
7104;SDS011;3594;42.152;24.714;2023-06-24T11:36:57;9.73;;;6.00;;
7104;SDS011;3594;42.152;24.714;2023-06-24T11:39:29;7.35;;;5.28;;
7104;SDS011;3594;42.152;24.714;2023-06-24T11:41:57;9.07;;;5.45;;
7104;SDS011;3594;42.152;24.714;2023-06-24T11:44:25;8.98;;;5.38;;
7104;SDS011;3594;42.152;24.714;2023-06-24T11:46:51;8.45;;;5.97;;
7104;SDS011;3594;42.152;24.714;2023-06-24T11:49:17;9.10;;;6.00;;
7104;SDS011;3594;42.152;24.714;2023-06-24T11:51:47;9.07;;;5.80;;
7104;SDS011;3594;42.152;24.714;2023-06-24T11:54:20;7.85;;;5.80;;
7104;SDS011;3594;42.152;24.714;2023-06-24T11:56:51;9.30;;;5.95;;
7104;SDS011;3594;42.152;24.714;2023-06-24T11:59:20;8.23;;;5.90;;
7104;SDS011;3594;42.152;24.714;2023-06-24T12:01:54;8.00;;;5.60;;
7104;SDS011;3594;42.152;24.714;2023-06-24T12:04:26;10.35;;;5.85;;
7104;SDS011;3594;42.152;24.714;2023-06-24T12:06:53;8.88;;;5.68;;
7104;SDS011;3594;42.152;24.714;2023-06-24T12:09:21;11.25;;;6.43;;
7104;SDS011;3594;42.152;24.714;2023-06-24T12:11:46;8.30;;;5.97;;
7104;SDS011;3594;42.152;24.714;2023-06-24T12:14:12;8.02;;;5.80;;
7104;SDS011;3594;42.152;24.714;2023-06-24T12:16:38;8.50;;;5.90;;
7104;SDS011;3594;42.152;24.714;2023-06-24T12:19:04;9.40;;;6.15;;
7104;SDS011;3594;42.152;24.714;2023-06-24T12:21:30;8.10;;;5.70;;
7104;SDS011;3594;42.152;24.714;2023-06-24T12:23:56;9.23;;;5.85;;
7104;SDS011;3594;42.152;24.714;2023-06-24T12:26:22;8.55;;;6.20;;
7104;SDS011;3594;42.152;24.714;2023-06-24T12:28:47;10.13;;;6.43;;
7104;SDS011;3594;42.152;24.714;2023-06-24T12:31:12;8.10;;;5.53;;
7104;SDS011;3594;42.152;24.714;2023-06-24T12:33:38;8.77;;;5.70;;
7104;SDS011;3594;42.152;24.714;2023-06-24T12:36:03;9.43;;;6.13;;
7104;SDS011;3594;42.152;24.714;2023-06-24T12:38:29;9.90;;;6.25;;
7104;SDS011;3594;42.152;24.714;2023-06-24T12:40:54;10.68;;;6.15;;
7104;SDS011;3594;42.152;24.714;2023-06-24T12:43:20;12.15;;;6.50;;
7104;SDS011;3594;42.152;24.714;2023-06-24T12:45:45;9.38;;;6.28;;
7104;SDS011;3594;42.152;24.714;2023-06-24T12:48:12;9.90;;;6.28;;
7104;SDS011;3594;42.152;24.714;2023-06-24T12:50:38;9.30;;;5.72;;
7104;SDS011;3594;42.152;24.714;2023-06-24T12:53:04;10.40;;;6.05;;
7104;SDS011;3594;42.152;24.714;2023-06-24T12:55:30;9.30;;;6.25;;
7104;SDS011;3594;42.152;24.714;2023-06-24T12:57:55;8.80;;;5.40;;
7104;SDS011;3594;42.152;24.714;2023-06-24T13:00:21;9.27;;;5.97;;
7104;SDS011;3594;42.152;24.714;2023-06-24T13:02:48;7.82;;;5.40;;
7104;SDS011;3594;42.152;24.714;2023-06-24T13:05:14;9.48;;;5.70;;
7104;SDS011;3594;42.152;24.714;2023-06-24T13:07:40;8.38;;;6.03;;
7104;SDS011;3594;42.152;24.714;2023-06-24T13:10:06;8.30;;;5.88;;
7104;SDS011;3594;42.152;24.714;2023-06-24T13:12:32;8.52;;;5.47;;
7104;SDS011;3594;42.152;24.714;2023-06-24T13:14:58;9.55;;;6.13;;
7104;SDS011;3594;42.152;24.714;2023-06-24T13:17:24;9.30;;;6.00;;
7104;SDS011;3594;42.152;24.714;2023-06-24T13:19:49;8.43;;;5.68;;
7104;SDS011;3594;42.152;24.714;2023-06-24T13:22:15;10.55;;;6.57;;
7104;SDS011;3594;42.152;24.714;2023-06-24T13:24:41;11.95;;;7.00;;
7104;SDS011;3594;42.152;24.714;2023-06-24T13:27:06;9.30;;;5.70;;
7104;SDS011;3594;42.152;24.714;2023-06-24T13:29:32;11.32;;;6.63;;
7104;SDS011;3594;42.152;24.714;2023-06-24T13:31:58;10.38;;;6.57;;
7104;SDS011;3594;42.152;24.714;2023-06-24T13:34:23;9.45;;;6.40;;
7104;SDS011;3594;42.152;24.714;2023-06-24T13:36:48;11.38;;;6.82;;
7104;SDS011;3594;42.152;24.714;2023-06-24T13:39:14;11.02;;;6.50;;
7104;SDS011;3594;42.152;24.714;2023-06-24T13:41:43;7.82;;;5.57;;
7104;SDS011;3594;42.152;24.714;2023-06-24T13:44:09;8.88;;;5.95;;
7104;SDS011;3594;42.152;24.714;2023-06-24T13:46:35;7.63;;;5.13;;
7104;SDS011;3594;42.152;24.714;2023-06-24T13:49:01;8.23;;;5.43;;
7104;SDS011;3594;42.152;24.714;2023-06-24T13:51:27;9.25;;;5.97;;
7104;SDS011;3594;42.152;24.714;2023-06-24T13:53:53;8.40;;;5.70;;
7104;SDS011;3594;42.152;24.714;2023-06-24T13:56:23;8.20;;;5.47;;
7104;SDS011;3594;42.152;24.714;2023-06-24T13:58:49;8.80;;;5.53;;
7104;SDS011;3594;42.152;24.714;2023-06-24T14:01:16;11.13;;;5.75;;
7104;SDS011;3594;42.152;24.714;2023-06-24T14:03:41;8.98;;;5.70;;
7104;SDS011;3594;42.152;24.714;2023-06-24T14:06:07;8.63;;;5.85;;
7104;SDS011;3594;42.152;24.714;2023-06-24T14:08:33;9.75;;;5.35;;
7104;SDS011;3594;42.152;24.714;2023-06-24T14:11:00;9.13;;;5.63;;
7104;SDS011;3594;42.152;24.714;2023-06-24T14:13:26;8.65;;;5.45;;
7104;SDS011;3594;42.152;24.714;2023-06-24T14:15:53;9.68;;;5.70;;
7104;SDS011;3594;42.152;24.714;2023-06-24T14:18:18;8.77;;;5.47;;
7104;SDS011;3594;42.152;24.714;2023-06-24T14:20:44;10.00;;;6.07;;
7104;SDS011;3594;42.152;24.714;2023-06-24T14:23:09;8.55;;;5.60;;
7104;SDS011;3594;42.152;24.714;2023-06-24T14:25:35;9.50;;;5.47;;
7104;SDS011;3594;42.152;24.714;2023-06-24T14:28:02;9.85;;;5.28;;
7104;SDS011;3594;42.152;24.714;2023-06-24T14:30:29;7.35;;;4.93;;
7104;SDS011;3594;42.152;24.714;2023-06-24T14:32:55;8.60;;;5.20;;
7104;SDS011;3594;42.152;24.714;2023-06-24T14:35:20;7.90;;;5.57;;
7104;SDS011;3594;42.152;24.714;2023-06-24T14:37:46;8.40;;;5.15;;
7104;SDS011;3594;42.152;24.714;2023-06-24T14:40:11;8.57;;;5.03;;
7104;SDS011;3594;42.152;24.714;2023-06-24T14:42:36;7.38;;;5.10;;
7104;SDS011;3594;42.152;24.714;2023-06-24T14:45:02;8.52;;;5.68;;
7104;SDS011;3594;42.152;24.714;2023-06-24T14:47:27;7.30;;;5.15;;
7104;SDS011;3594;42.152;24.714;2023-06-24T14:49:53;9.82;;;5.43;;
7104;SDS011;3594;42.152;24.714;2023-06-24T14:52:18;7.82;;;4.72;;
7104;SDS011;3594;42.152;24.714;2023-06-24T14:54:45;9.23;;;5.28;;
7104;SDS011;3594;42.152;24.714;2023-06-24T14:57:12;9.43;;;5.05;;
7104;SDS011;3594;42.152;24.714;2023-06-24T14:59:37;8.88;;;5.35;;
7104;SDS011;3594;42.152;24.714;2023-06-24T15:02:03;8.90;;;5.45;;
7104;SDS011;3594;42.152;24.714;2023-06-24T15:04:28;8.07;;;5.65;;
7104;SDS011;3594;42.152;24.714;2023-06-24T15:06:54;7.05;;;5.10;;
7104;SDS011;3594;42.152;24.714;2023-06-24T15:09:19;7.90;;;5.13;;
7104;SDS011;3594;42.152;24.714;2023-06-24T15:11:44;7.60;;;4.85;;
7104;SDS011;3594;42.152;24.714;2023-06-24T15:14:11;7.75;;;5.18;;
7104;SDS011;3594;42.152;24.714;2023-06-24T15:16:36;8.43;;;5.43;;
7104;SDS011;3594;42.152;24.714;2023-06-24T15:19:02;7.63;;;4.88;;